Anaheim, California
Current Conditions -  °F | °C
As of 7:53 PM on Wednesday 22 Oct 2014 (Local Time) from KFUL Reporting Station
Clear Clear  
Wind Chill: 73°   Ceiling: Unl
Heat Index: 73°   Visibility: 10mi
Dew Point: 61°   Wind: 3mph
Humidity: 66%   Direction: 300°WNW
Pressure: 29.92"   Gusts: NA
Location:  33.83°N, 117.91°W
Report Text: KFUL 230253Z 30003KT 10SM CLR 23/16 A2992 RMK AO2 SLP130 T02280161 53017 $
Loading
Personal Weather Stations






























Interactive Weather Map
Tropical Storm Tracking
New forecast layout! Learn more

10-Day Weather Forecast

Advertisements
Track Severe Weather on mobile